Time;durP1;ratioP1;P1;durP2;ratioP2;P2;SDS_P1;SDS_P2;PMS_P1;PMS_P2;Temp;Humidity;BMP_temperature;BMP_pressure;BME280_temperature;BME280_humidity;BME280_pressure;Samples;Min_cycle;Max_cycle;Signal;HPM_P1;HPM_P2
2023/04/18 04:48:15;;;;;;;24.92;18.85;;;7.70;99.90;;;;;;5016568;28;20178;-85
2023/04/18 04:51:30;;;;;;;24.48;18.52;;;7.70;99.90;;;;;;4999880;28;20207;-86
2023/04/18 04:57:21;;;;;;;25.55;18.58;;;7.60;99.90;;;;;;5016334;28;20182;-84
2023/04/18 04:59:48;;;;;;;24.40;19.17;;;7.50;99.90;;;;;;4990804;28;20200;-84
2023/04/18 05:02:15;;;;;;;26.90;19.27;;;7.60;99.90;;;;;;5003129;28;20204;-85
2023/04/18 05:05:08;;;;;;;27.48;19.60;;;7.60;99.90;;;;;;5021670;28;20654;-86
2023/04/18 05:07:35;;;;;;;24.80;19.00;;;7.60;99.90;;;;;;5036382;28;20543;-85
2023/04/18 05:10:03;;;;;;;23.83;18.98;;;7.60;99.90;;;;;;5023243;28;20536;-84
2023/04/18 05:12:30;;;;;;;25.90;19.25;;;7.60;99.90;;;;;;5015513;28;20215;-85
2023/04/18 05:14:57;;;;;;;26.85;19.92;;;7.60;99.90;;;;;;5015350;28;20207;-84
2023/04/18 05:17:24;;;;;;;24.17;19.45;;;7.70;99.90;;;;;;5016261;28;20192;-84
2023/04/18 05:19:52;;;;;;;25.83;19.92;;;7.70;99.90;;;;;;5015058;28;20200;-85
2023/04/18 05:22:20;;;;;;;23.98;17.98;;;7.70;99.90;;;;;;5015425;28;20226;-85
2023/04/18 05:24:47;;;;;;;24.30;18.38;;;7.80;99.90;;;;;;5014627;28;20207;-84
2023/04/18 05:27:14;;;;;;;24.58;20.10;;;7.80;99.90;;;;;;5014917;28;20222;-84
2023/04/18 05:29:41;;;;;;;24.73;18.40;;;7.80;99.90;;;;;;4982031;28;20207;-84
2023/04/18 05:32:08;;;;;;;25.58;18.85;;;7.80;99.90;;;;;;5015141;28;20567;-83
2023/04/18 05:34:36;;;;;;;23.50;19.10;;;7.70;99.90;;;;;;5015192;28;20644;-84
2023/04/18 05:37:03;;;;;;;23.67;18.83;;;7.70;99.90;;;;;;5006156;28;20303;-84
2023/04/18 05:43:00;;;;;;;24.77;18.52;;;7.90;99.90;;;;;;4995977;28;20678;-84
2023/04/18 05:49:07;;;;;;;24.92;18.50;;;8.00;99.90;;;;;;5015364;28;20206;-84
2023/04/18 05:55:12;;;;;;;21.13;17.92;;;8.20;99.90;;;;;;4995139;28;20214;-84
2023/04/18 05:58:11;;;;;;;22.95;17.73;;;8.30;99.90;;;;;;4990374;28;20219;-84
2023/04/18 06:00:38;;;;;;;23.17;18.27;;;8.40;99.90;;;;;;5013800;28;20211;-84
2023/04/18 06:03:05;;;;;;;24.60;16.88;;;8.50;99.90;;;;;;5020338;28;20211;-85
2023/04/18 06:05:32;;;;;;;21.90;17.38;;;8.60;99.90;;;;;;5013701;28;20226;-84
2023/04/18 06:07:59;;;;;;;24.65;18.17;;;8.80;99.40;;;;;;5021533;28;20199;-84
2023/04/18 06:10:26;;;;;;;22.27;17.63;;;8.90;99.50;;;;;;5014911;28;20195;-84
2023/04/18 06:12:53;;;;;;;20.67;16.70;;;9.00;99.00;;;;;;5015580;28;20315;-85
2023/04/18 06:15:21;;;;;;;20.10;16.83;;;9.10;98.70;;;;;;5014715;28;20199;-86
2023/04/18 06:17:51;;;;;;;22.52;17.25;;;9.20;98.60;;;;;;5015119;28;20571;-84
2023/04/18 06:20:18;;;;;;;21.95;17.40;;;9.30;98.40;;;;;;5013485;28;20199;-86
2023/04/18 06:22:45;;;;;;;23.55;17.13;;;9.30;98.20;;;;;;5013708;28;20228;-82
2023/04/18 06:25:12;;;;;;;19.48;15.75;;;9.30;98.40;;;;;;5021153;28;20206;-84
2023/04/18 06:27:39;;;;;;;21.00;15.23;;;9.40;98.50;;;;;;5014354;28;20201;-82
2023/04/18 06:30:07;;;;;;;17.88;15.52;;;9.60;98.10;;;;;;5017070;28;20578;-83
2023/04/18 06:32:36;;;;;;;19.10;16.45;;;9.90;97.40;;;;;;5016856;28;20215;-83
2023/04/18 06:35:06;;;;;;;21.25;15.50;;;10.10;96.30;;;;;;5013145;28;20210;-81
2023/04/18 06:37:33;;;;;;;18.73;14.48;;;10.10;96.30;;;;;;4994469;28;20218;-82
2023/04/18 06:40:00;;;;;;;18.83;14.68;;;10.10;95.70;;;;;;5013454;28;20202;-82
2023/04/18 06:42:27;;;;;;;19.75;15.35;;;10.00;95.70;;;;;;5014484;28;20199;-82
2023/04/18 06:44:54;;;;;;;18.67;15.13;;;10.00;95.70;;;;;;5014081;28;20201;-83
2023/04/18 06:47:35;;;;;;;17.30;14.85;;;9.90;96.50;;;;;;5025783;28;20724;-82
2023/04/18 06:50:03;;;;;;;17.90;14.18;;;10.00;95.70;;;;;;5011387;28;20205;-84
2023/04/18 06:52:30;;;;;;;16.00;13.73;;;10.10;95.80;;;;;;5014653;28;20234;-86
2023/04/18 06:54:57;;;;;;;15.65;13.93;;;10.20;95.80;;;;;;4995970;28;20210;-86
2023/04/18 06:57:28;;;;;;;18.88;13.93;;;10.30;95.80;;;;;;4995078;28;20203;-85
2023/04/18 06:59:55;;;;;;;18.20;14.40;;;10.30;95.60;;;;;;5009141;28;20250;-87
2023/04/18 07:02:22;;;;;;;18.02;14.50;;;10.20;95.80;;;;;;5000319;28;20199;-86
2023/04/18 07:04:52;;;;;;;16.98;13.98;;;10.30;95.80;;;;;;5013676;28;20650;-86
2023/04/18 07:07:28;;;;;;;15.23;13.38;;;10.40;95.00;;;;;;5017060;28;20621;-85
2023/04/18 07:10:08;;;;;;;15.93;13.57;;;10.60;94.50;;;;;;5011424;28;20670;-86
2023/04/18 07:12:41;;;;;;;15.82;13.55;;;10.70;93.60;;;;;;4996382;28;20304;-86
2023/04/18 07:15:09;;;;;;;16.58;13.73;;;10.60;93.70;;;;;;5015768;28;20274;-85
2023/04/18 07:17:35;;;;;;;17.52;13.45;;;10.50;94.40;;;;;;5015637;28;20198;-82
2023/04/18 07:20:05;;;;;;;18.48;13.80;;;10.50;94.50;;;;;;5010271;28;20195;-84
2023/04/18 07:22:32;;;;;;;16.08;13.65;;;10.40;95.00;;;;;;4999314;28;20223;-83
2023/04/18 07:24:59;;;;;;;15.68;12.60;;;10.30;94.80;;;;;;5009695;28;20209;-83
2023/04/18 07:27:26;;;;;;;18.05;12.85;;;10.20;94.50;;;;;;5023035;28;20738;-82
2023/04/18 07:29:54;;;;;;;14.30;12.45;;;10.20;94.50;;;;;;5009487;28;20237;-83
2023/04/18 07:32:21;;;;;;;14.43;12.63;;;10.30;94.60;;;;;;5001263;28;20199;-82
2023/04/18 07:34:50;;;;;;;20.63;13.70;;;10.30;93.80;;;;;;5016659;28;20212;-83
2023/04/18 07:37:21;;;;;;;15.95;11.73;;;10.40;93.80;;;;;;5006560;28;20196;-83
2023/04/18 07:39:51;;;;;;;14.57;11.73;;;10.40;93.90;;;;;;4988655;28;20202;-82
2023/04/18 07:42:18;;;;;;;15.30;11.80;;;10.40;93.20;;;;;;5005508;28;20292;-83
2023/04/18 07:44:45;;;;;;;14.95;12.45;;;10.40;92.80;;;;;;5012362;28;20206;-83
2023/04/18 07:47:12;;;;;;;15.00;11.82;;;10.50;92.80;;;;;;5017881;28;20535;-88
2023/04/18 07:49:39;;;;;;;14.90;11.52;;;10.50;92.70;;;;;;5008705;28;20562;-82
2023/04/18 07:52:07;;;;;;;13.68;11.80;;;10.50;92.50;;;;;;5017985;28;20226;-86
2023/04/18 07:54:50;;;;;;;15.70;11.68;;;10.70;92.90;;;;;;5018799;28;20218;-84
2023/04/18 07:57:17;;;;;;;15.02;11.65;;;11.00;92.00;;;;;;5014080;28;20238;-83
2023/04/18 07:59:47;;;;;;;13.93;11.63;;;11.40;91.30;;;;;;5013620;28;20243;-84
2023/04/18 08:05:27;;;;;;;13.30;11.23;;;11.60;89.40;;;;;;4990479;28;20260;-84
2023/04/18 08:08:07;;;;;;;13.23;11.05;;;11.50;88.30;;;;;;5019781;28;20207;-86
2023/04/18 08:10:50;;;;;;;13.63;10.40;;;11.40;88.70;;;;;;5017091;28;20210;-84
2023/04/18 08:13:26;;;;;;;13.55;10.57;;;11.30;90.00;;;;;;5021554;28;20231;-85
2023/04/18 08:15:54;;;;;;;13.18;11.25;;;11.30;90.00;;;;;;5011698;28;20195;-85
2023/04/18 08:18:21;;;;;;;12.43;10.95;;;11.10;90.50;;;;;;5017919;28;20203;-84
2023/04/18 08:20:49;;;;;;;14.02;11.45;;;11.10;90.50;;;;;;5015735;28;20730;-84
2023/04/18 08:23:17;;;;;;;13.98;11.52;;;11.00;90.90;;;;;;5016849;28;20227;-84
2023/04/18 08:25:46;;;;;;;14.35;11.35;;;10.90;90.90;;;;;;5015893;28;20191;-85
2023/04/18 08:28:14;;;;;;;12.95;11.27;;;10.70;92.00;;;;;;5017243;28;20215;-86
2023/04/18 08:30:42;;;;;;;13.63;11.40;;;10.60;92.10;;;;;;5006309;28;20703;-85
2023/04/18 08:33:12;;;;;;;19.27;13.35;;;10.50;92.60;;;;;;5016177;28;20254;-84
2023/04/18 08:35:42;;;;;;;14.25;11.73;;;10.50;92.60;;;;;;5013801;28;20195;-84
2023/04/18 08:38:10;;;;;;;14.27;11.20;;;10.30;92.80;;;;;;5000214;28;20210;-83
2023/04/18 08:40:37;;;;;;;14.15;11.77;;;10.20;93.00;;;;;;5018313;28;20207;-86
2023/04/18 08:43:08;;;;;;;15.32;11.20;;;10.10;93.40;;;;;;5017960;28;20213;-86
2023/04/18 08:45:35;;;;;;;14.23;11.68;;;10.00;94.20;;;;;;5016609;28;20314;-86
2023/04/18 09:05:23;;;;;;;15.32;11.02;;;10.20;93.90;;;;;;5017541;28;20230;-84
2023/04/18 09:07:53;;;;;;;14.75;11.65;;;10.40;93.50;;;;;;4963461;28;20567;-85
2023/04/18 09:10:28;;;;;;;14.20;11.75;;;10.50;93.20;;;;;;5018779;28;20203;-83
2023/04/18 09:12:56;;;;;;;14.73;11.68;;;10.60;92.90;;;;;;5014462;28;20203;-83
2023/04/18 09:15:25;;;;;;;14.40;11.30;;;10.80;92.90;;;;;;5012576;28;20615;-84
2023/04/18 09:17:54;;;;;;;15.70;11.63;;;10.90;92.20;;;;;;5014398;28;20199;-83
2023/04/18 09:20:33;;;;;;;14.30;11.25;;;10.80;92.30;;;;;;5013743;28;20199;-83
2023/04/18 09:23:04;;;;;;;12.43;10.80;;;10.80;92.50;;;;;;5016788;28;20593;-82
2023/04/18 09:25:34;;;;;;;14.40;10.80;;;10.70;92.50;;;;;;5006052;28;20290;-83
2023/04/18 09:28:03;;;;;;;13.35;11.15;;;10.70;92.20;;;;;;5013649;28;20227;-83
2023/04/18 09:30:32;;;;;;;12.18;10.35;;;10.60;92.50;;;;;;5012349;28;20207;-83
2023/04/18 09:33:08;;;;;;;13.43;10.48;;;10.60;92.80;;;;;;5013049;28;20199;-81
2023/04/18 09:35:52;;;;;;;12.80;10.55;;;10.60;92.90;;;;;;5014893;28;20198;-83
2023/04/18 09:38:21;;;;;;;14.75;10.30;;;10.70;92.90;;;;;;5014516;28;20655;-81
2023/04/18 09:41:18;;;;;;;12.40;10.25;;;10.70;92.30;;;;;;4998054;28;20291;-83
2023/04/18 09:43:46;;;;;;;11.48;9.93;;;10.70;92.60;;;;;;4997632;28;20203;-82
2023/04/18 09:46:21;;;;;;;12.38;10.40;;;10.70;92.20;;;;;;5017339;28;20199;-84
2023/04/18 09:51:33;;;;;;;12.45;10.10;;;10.70;92.50;;;;;;5012100;28;20290;-84
2023/04/18 09:54:05;;;;;;;15.48;10.48;;;10.80;92.00;;;;;;5014675;28;20249;-86
2023/04/18 09:56:36;;;;;;;12.65;10.57;;;10.70;92.60;;;;;;5011073;28;20579;-83
2023/04/18 09:59:07;;;;;;;12.93;10.73;;;10.80;92.10;;;;;;4996784;28;20207;-85
2023/04/18 10:01:35;;;;;;;13.77;11.02;;;11.00;92.10;;;;;;5019749;28;20293;-82
2023/04/18 10:04:05;;;;;;;14.35;10.27;;;11.10;91.10;;;;;;5022142;28;20211;-83
2023/04/18 10:06:38;;;;;;;12.63;10.30;;;11.20;90.60;;;;;;5015211;28;20250;-82
2023/04/18 10:09:08;;;;;;;11.73;10.00;;;11.30;90.60;;;;;;5012187;28;20257;-83
2023/04/18 10:11:35;;;;;;;11.85;9.80;;;11.40;90.60;;;;;;5013332;28;20199;-84
2023/04/18 10:14:09;;;;;;;12.35;9.85;;;11.70;90.70;;;;;;5020528;28;20687;-86
2023/04/18 10:16:37;;;;;;;13.40;9.95;;;11.90;88.80;;;;;;4973287;28;20197;-83
2023/04/18 10:22:35;;;;;;;11.75;10.02;;;12.00;85.50;;;;;;5144396;22;20586;-83
2023/04/18 10:25:02;;;;;;;13.50;9.60;;;11.90;87.50;;;;;;5002065;28;20674;-84
2023/04/18 10:27:58;;;;;;;12.80;10.38;;;11.70;88.20;;;;;;5014073;28;20214;-83
2023/04/18 10:31:02;;;;;;;13.55;10.32;;;11.60;89.40;;;;;;4998705;28;20226;-82
2023/04/18 10:33:35;;;;;;;12.82;10.20;;;11.30;90.40;;;;;;5012007;28;20277;-84
2023/04/18 10:36:14;;;;;;;14.27;11.00;;;11.20;90.60;;;;;;5011309;28;20207;-82
2023/04/18 10:38:48;;;;;;;13.20;10.70;;;11.20;90.60;;;;;;5010576;28;20203;-84
2023/04/18 10:41:27;;;;;;;13.38;10.73;;;11.10;90.80;;;;;;5011120;28;20195;-83
2023/04/18 10:44:23;;;;;;;12.50;10.15;;;11.00;91.30;;;;;;4994305;28;20198;-83
2023/04/18 10:47:45;;;;;;;11.52;9.80;;;10.90;91.80;;;;;;5011693;28;20207;-84
2023/04/18 10:50:12;;;;;;;13.13;9.95;;;10.80;91.90;;;;;;5011550;28;20229;-86
2023/04/18 10:52:50;;;;;;;14.07;9.98;;;10.80;92.30;;;;;;4998186;28;20206;-90
2023/04/18 10:55:26;;;;;;;13.73;10.10;;;10.90;92.40;;;;;;5012536;28;20216;-83
2023/04/18 10:57:59;;;;;;;12.93;9.85;;;11.00;92.00;;;;;;5000691;28;20347;-85
2023/04/18 11:00:26;;;;;;;11.00;9.77;;;11.00;91.40;;;;;;4993715;28;20212;-84
2023/04/18 11:02:56;;;;;;;11.88;9.95;;;11.10;91.50;;;;;;4994063;28;20200;-84
2023/04/18 11:05:25;;;;;;;12.80;9.30;;;11.10;91.40;;;;;;5012611;28;20261;-83
2023/04/18 11:07:54;;;;;;;12.70;9.60;;;11.10;91.40;;;;;;5009825;28;20195;-85
2023/04/18 11:10:26;;;;;;;11.45;9.88;;;11.10;91.30;;;;;;5011555;28;20209;-82
2023/04/18 11:13:03;;;;;;;11.38;9.32;;;11.20;91.10;;;;;;5013275;28;20663;-84
2023/04/18 11:15:38;;;;;;;11.55;9.38;;;11.50;90.60;;;;;;5006296;28;20247;-87
2023/04/18 11:18:24;;;;;;;11.77;9.82;;;11.90;89.80;;;;;;4997820;28;20203;-83
2023/04/18 11:20:52;;;;;;;14.02;10.45;;;12.20;86.60;;;;;;5010274;28;20214;-85
2023/04/18 11:23:23;;;;;;;13.30;9.55;;;12.20;85.50;;;;;;5017046;28;20223;-87
2023/04/18 11:25:53;;;;;;;12.38;10.18;;;12.10;86.40;;;;;;5019017;28;20642;-85
2023/04/18 11:28:21;;;;;;;11.35;9.27;;;11.90;86.70;;;;;;5034317;28;20609;-84
2023/04/18 11:30:48;;;;;;;10.52;8.85;;;12.00;87.60;;;;;;5002118;28;20555;-83
2023/04/18 11:33:15;;;;;;;11.68;9.30;;;11.70;88.50;;;;;;5015290;28;20286;-82
2023/04/18 11:35:46;;;;;;;9.20;7.82;;;11.70;88.50;;;;;;5022291;28;20230;-84
2023/04/18 11:38:14;;;;;;;9.13;8.07;;;11.70;87.50;;;;;;5009622;28;20648;-83
2023/04/18 11:41:10;;;;;;;10.65;7.90;;;11.90;86.70;;;;;;5018356;28;20651;-84
2023/04/18 11:43:37;;;;;;;10.52;8.10;;;12.00;84.10;;;;;;5017822;28;20218;-86
2023/04/18 11:46:04;;;;;;;9.40;7.95;;;12.20;83.20;;;;;;4994355;28;20208;-83
2023/04/18 11:48:36;;;;;;;10.63;8.25;;;12.20;82.90;;;;;;5014695;28;20199;-85
2023/04/18 11:51:06;;;;;;;9.85;8.05;;;12.20;82.10;;;;;;5028635;28;20299;-85
2023/04/18 11:53:35;;;;;;;10.32;7.80;;;12.10;84.00;;;;;;5016841;28;20195;-87
2023/04/18 11:56:04;;;;;;;10.77;7.88;;;12.10;84.40;;;;;;5021373;28;20302;-85
2023/04/18 11:58:34;;;;;;;9.45;8.05;;;12.20;84.00;;;;;;5011683;28;20210;-86
2023/04/18 12:01:20;;;;;;;8.98;7.95;;;12.40;84.40;;;;;;5005711;28;20291;-85
2023/04/18 12:04:02;;;;;;;8.60;7.28;;;12.70;81.40;;;;;;5023494;28;20196;-82
2023/04/18 12:06:45;;;;;;;9.50;7.60;;;12.80;78.70;;;;;;5019527;28;20199;-83
2023/04/18 12:09:29;;;;;;;11.57;7.93;;;13.00;75.90;;;;;;5001165;28;20210;-82
2023/04/18 12:12:02;;;;;;;10.13;7.63;;;13.30;76.10;;;;;;5012382;28;20203;-82
2023/04/18 12:14:30;;;;;;;9.00;7.75;;;13.30;71.20;;;;;;5012871;28;20227;-84
2023/04/18 12:16:57;;;;;;;9.30;7.68;;;13.40;68.00;;;;;;5003628;28;20249;-82
2023/04/18 12:19:27;;;;;;;8.68;7.30;;;13.50;66.10;;;;;;5018805;28;20202;-82
2023/04/18 12:21:59;;;;;;;8.60;7.57;;;13.40;64.60;;;;;;5015325;28;20253;-82
2023/04/18 12:24:27;;;;;;;10.50;7.47;;;13.40;66.10;;;;;;5014925;28;20214;-83
2023/04/18 12:26:56;;;;;;;8.60;6.72;;;13.50;66.40;;;;;;5016201;28;20199;-83
2023/04/18 12:29:31;;;;;;;8.40;6.65;;;13.50;63.40;;;;;;5015779;28;20203;-83
2023/04/18 12:32:01;;;;;;;7.78;6.97;;;13.50;63.90;;;;;;5012261;28;20198;-83
2023/04/18 12:34:49;;;;;;;9.18;7.63;;;13.40;65.60;;;;;;5021561;28;20250;-83
2023/04/18 12:37:16;;;;;;;8.55;7.03;;;13.30;67.50;;;;;;4998383;28;20664;-84
2023/04/18 12:39:44;;;;;;;9.60;7.57;;;13.50;70.10;;;;;;5003191;28;20221;-82
2023/04/18 12:42:12;;;;;;;8.20;7.13;;;13.30;64.70;;;;;;4999871;28;20684;-83
2023/04/18 12:44:43;;;;;;;8.20;6.68;;;13.50;65.60;;;;;;4994550;28;20686;-82
2023/04/18 12:47:11;;;;;;;7.82;7.03;;;13.70;64.40;;;;;;5000760;28;20207;-82
2023/04/18 12:49:38;;;;;;;8.60;7.43;;;13.50;63.30;;;;;;5018751;28;20662;-83
2023/04/18 12:52:05;;;;;;;9.00;6.95;;;13.30;66.00;;;;;;5016199;28;20286;-82
2023/04/18 12:54:34;;;;;;;9.13;7.60;;;13.20;67.80;;;;;;5016658;28;20237;-82
2023/04/18 12:57:02;;;;;;;10.23;7.20;;;12.90;70.10;;;;;;5023299;28;20293;-83
2023/04/18 12:59:30;;;;;;;8.80;7.45;;;12.80;72.10;;;;;;5015048;28;20297;-83
2023/04/18 13:02:02;;;;;;;10.20;7.00;;;13.00;71.00;;;;;;5004747;28;20203;-86
2023/04/18 13:04:39;;;;;;;9.60;7.50;;;13.10;69.20;;;;;;5015269;28;20214;-85
2023/04/18 13:07:07;;;;;;;8.52;7.25;;;13.00;71.70;;;;;;5001080;28;20202;-83
2023/04/18 13:09:34;;;;;;;8.80;7.20;;;12.80;71.80;;;;;;5016622;28;20210;-83
2023/04/18 13:12:06;;;;;;;11.57;7.97;;;12.60;75.60;;;;;;5015556;28;20207;-85
2023/04/18 13:14:33;;;;;;;10.50;8.25;;;12.40;77.70;;;;;;4996436;28;20223;-84
2023/04/18 13:17:02;;;;;;;9.02;7.38;;;12.40;78.40;;;;;;5015139;28;20210;-83
2023/04/18 13:19:30;;;;;;;11.07;7.13;;;12.40;76.80;;;;;;4997287;28;20576;-83
2023/04/18 13:21:58;;;;;;;8.65;7.20;;;12.30;77.90;;;;;;5020732;28;20238;-84
2023/04/18 13:24:31;;;;;;;8.05;7.00;;;12.40;77.20;;;;;;5014864;28;20211;-82
2023/04/18 13:27:13;;;;;;;10.10;7.72;;;12.30;79.20;;;;;;5018122;28;20257;-82
2023/04/18 13:29:50;;;;;;;8.75;6.90;;;12.20;80.40;;;;;;5012018;28;20223;-84
2023/04/18 13:32:18;;;;;;;9.93;6.72;;;12.30;80.10;;;;;;5011193;28;20207;-84
2023/04/18 13:34:51;;;;;;;7.22;6.05;;;12.20;77.90;;;;;;4996160;28;20227;-86
2023/04/18 13:37:18;;;;;;;7.65;6.30;;;12.10;78.20;;;;;;4997951;28;20207;-84
2023/04/18 13:39:47;;;;;;;7.70;6.25;;;12.20;79.10;;;;;;5013566;28;20242;-84
2023/04/18 13:42:18;;;;;;;7.72;6.07;;;12.10;79.70;;;;;;5013419;28;20245;-85
2023/04/18 13:44:46;;;;;;;8.82;6.95;;;12.20;78.20;;;;;;4997669;28;20234;-85
2023/04/18 13:47:13;;;;;;;8.32;6.13;;;12.10;79.80;;;;;;4995789;28;20607;-83
2023/04/18 13:49:43;;;;;;;8.55;6.38;;;12.10;81.50;;;;;;5013359;28;20195;-83
2023/04/18 13:52:10;;;;;;;7.13;6.22;;;12.30;81.20;;;;;;5009963;28;20208;-85
2023/04/18 13:54:37;;;;;;;7.97;6.25;;;12.30;80.60;;;;;;5013875;28;20218;-84
2023/04/18 13:57:10;;;;;;;9.85;6.10;;;12.30;81.80;;;;;;4995599;28;20196;-83
2023/04/18 13:59:37;;;;;;;8.38;6.43;;;12.20;82.80;;;;;;4996130;28;20219;-85
2023/04/18 14:02:05;;;;;;;7.95;6.50;;;12.10;84.00;;;;;;5010953;28;20205;-85
2023/04/18 14:04:33;;;;;;;8.70;6.22;;;11.90;86.50;;;;;;4995616;28;20201;-81
2023/04/18 14:07:02;;;;;;;7.85;6.45;;;11.90;87.50;;;;;;5007041;28;20582;-81
2023/04/18 14:09:29;;;;;;;7.40;6.32;;;11.70;90.30;;;;;;5008601;28;20223;-83
2023/04/18 14:12:00;;;;;;;7.00;6.00;;;11.70;90.40;;;;;;5003482;28;20210;-89
2023/04/18 14:14:28;;;;;;;7.00;6.30;;;11.50;90.60;;;;;;5004797;28;20362;-85
2023/04/18 14:16:55;;;;;;;8.25;6.60;;;11.40;91.60;;;;;;5011035;28;20926;-82
2023/04/18 14:19:24;;;;;;;6.97;6.07;;;11.40;91.90;;;;;;5013309;28;20217;-90
2023/04/18 14:21:51;;;;;;;7.15;6.45;;;11.40;91.80;;;;;;5013131;28;20281;-91
2023/04/18 14:24:35;;;;;;;8.23;6.15;;;11.40;91.50;;;;;;5003120;28;20345;-85
2023/04/18 14:27:06;;;;;;;8.05;6.88;;;11.30;91.60;;;;;;4978802;28;20568;-86
2023/04/18 14:29:36;;;;;;;8.55;6.40;;;11.30;91.50;;;;;;5017607;28;20286;-84
2023/04/18 14:32:03;;;;;;;8.02;6.90;;;11.20;92.00;;;;;;5012228;28;20663;-86
2023/04/18 14:34:30;;;;;;;7.82;6.38;;;11.10;92.40;;;;;;5014740;28;20686;-84
2023/04/18 14:40:36;;;;;;;9.15;6.45;;;11.00;93.30;;;;;;4934198;29;20307;-84
2023/04/18 14:43:04;;;;;;;9.15;6.90;;;11.00;93.30;;;;;;5014126;28;20258;-83
2023/04/18 14:45:33;;;;;;;7.88;6.45;;;11.00;93.50;;;;;;5014029;28;20230;-84
2023/04/18 14:48:00;;;;;;;10.05;6.47;;;11.20;93.40;;;;;;5001795;28;20331;-83
2023/04/18 14:50:27;;;;;;;7.85;6.70;;;11.30;93.00;;;;;;4989134;28;20689;-85
2023/04/18 14:52:57;;;;;;;7.82;6.53;;;11.30;92.50;;;;;;5015007;28;20191;-87
2023/04/18 14:55:26;;;;;;;6.97;6.28;;;11.40;92.40;;;;;;5012452;28;20219;-83
2023/04/18 14:57:54;;;;;;;9.05;6.60;;;11.30;92.40;;;;;;5012451;28;20199;-84
2023/04/18 15:00:21;;;;;;;7.70;6.55;;;11.40;92.00;;;;;;5003196;28;20298;-83
2023/04/18 15:02:48;;;;;;;10.20;6.93;;;11.50;91.80;;;;;;5012136;28;20674;-84
2023/04/18 15:05:16;;;;;;;8.15;6.72;;;11.50;91.40;;;;;;4995234;28;20203;-84
2023/04/18 15:07:46;;;;;;;8.82;6.72;;;11.50;91.30;;;;;;5010370;28;20254;-86
2023/04/18 15:10:14;;;;;;;9.13;7.03;;;11.40;91.20;;;;;;5012384;28;20233;-86
2023/04/18 15:12:43;;;;;;;9.32;6.78;;;11.30;91.60;;;;;;5012830;28;20253;-82
2023/04/18 15:15:11;;;;;;;7.20;6.22;;;11.10;91.90;;;;;;5012367;28;20702;-85
2023/04/18 15:17:37;;;;;;;7.05;6.10;;;11.10;92.00;;;;;;4994885;28;20926;-83
2023/04/18 15:20:06;;;;;;;7.15;5.78;;;11.20;92.20;;;;;;5012218;28;20203;-84
2023/04/18 15:22:34;;;;;;;9.90;6.53;;;11.20;92.20;;;;;;5011890;28;20361;-84
2023/04/18 15:25:02;;;;;;;6.80;6.10;;;11.20;92.40;;;;;;5013020;28;20233;-83
2023/04/18 15:27:38;;;;;;;6.90;5.90;;;11.20;91.70;;;;;;4967338;28;20207;-88
2023/04/18 15:33:23;;;;;;;8.30;6.50;;;11.10;92.00;;;;;;4988689;28;20203;-85
2023/04/18 15:35:51;;;;;;;9.45;6.50;;;11.10;92.20;;;;;;5017501;28;20219;-85
2023/04/18 15:38:19;;;;;;;7.70;6.47;;;11.10;92.20;;;;;;4979752;28;20652;-86
2023/04/18 15:40:46;;;;;;;8.23;5.95;;;11.10;92.30;;;;;;5020078;28;20203;-85
2023/04/18 15:43:15;;;;;;;7.15;6.18;;;11.10;92.00;;;;;;4995968;28;20199;-85
2023/04/18 15:45:47;;;;;;;7.10;6.07;;;11.00;92.70;;;;;;5017935;28;20633;-85
2023/04/18 15:48:14;;;;;;;8.50;6.18;;;11.00;92.80;;;;;;5015863;28;20200;-86
2023/04/18 15:50:43;;;;;;;7.85;6.15;;;11.00;93.10;;;;;;5011392;28;20217;-87
2023/04/18 15:53:10;;;;;;;7.85;6.25;;;11.10;92.60;;;;;;4995322;28;20206;-85
2023/04/18 15:55:38;;;;;;;7.80;6.50;;;11.10;92.60;;;;;;4994515;28;20215;-84
2023/04/18 15:58:05;;;;;;;8.85;7.05;;;11.10;92.40;;;;;;5003917;28;20253;-86
2023/04/18 16:00:32;;;;;;;8.02;6.50;;;11.10;92.60;;;;;;5012717;28;20225;-85
2023/04/18 16:03:09;;;;;;;8.15;6.70;;;10.90;92.80;;;;;;4995045;28;20612;-84
2023/04/18 16:05:36;;;;;;;18.45;14.85;;;11.00;93.10;;;;;;5003272;28;20310;-84
2023/04/18 16:08:05;;;;;;;7.45;6.60;;;10.90;93.20;;;;;;5012857;28;20206;-85
2023/04/18 16:10:33;;;;;;;7.38;6.50;;;10.90;93.20;;;;;;5015943;28;20203;-85
2023/04/18 16:13:01;;;;;;;8.30;6.55;;;10.90;93.40;;;;;;5005458;28;20207;-85
2023/04/18 16:15:30;;;;;;;8.20;6.88;;;10.90;93.50;;;;;;4996850;28;20243;-85
2023/04/18 16:17:57;;;;;;;8.43;6.85;;;11.00;93.30;;;;;;4977653;28;20203;-85
2023/04/18 16:20:26;;;;;;;9.40;6.95;;;11.00;93.30;;;;;;4997078;28;20199;-87
2023/04/18 16:22:53;;;;;;;8.80;7.30;;;10.90;93.50;;;;;;5015280;28;20226;-85
2023/04/18 16:25:20;;;;;;;9.23;6.75;;;10.90;93.50;;;;;;5021498;28;20218;-84
2023/04/18 16:27:47;;;;;;;7.72;6.47;;;10.90;93.40;;;;;;5024635;28;20198;-84
2023/04/18 16:30:15;;;;;;;8.07;6.78;;;10.90;93.50;;;;;;5033678;28;20196;-87
2023/04/18 16:32:44;;;;;;;7.78;6.97;;;10.80;93.70;;;;;;5021648;28;20275;-86
2023/04/18 16:35:12;;;;;;;8.15;6.80;;;10.90;93.90;;;;;;4996919;28;20229;-87
2023/04/18 16:37:41;;;;;;;7.75;6.70;;;10.90;93.90;;;;;;5002762;28;20218;-85
2023/04/18 16:40:09;;;;;;;8.32;7.05;;;11.00;93.70;;;;;;4998564;28;20698;-87
2023/04/18 16:42:39;;;;;;;8.48;6.78;;;10.90;93.50;;;;;;5010372;28;20209;-89
2023/04/18 16:45:11;;;;;;;8.15;6.90;;;10.90;93.60;;;;;;5012831;28;20206;-86
2023/04/18 16:47:38;;;;;;;8.98;7.10;;;11.00;93.60;;;;;;5015611;28;20195;-85
2023/04/18 16:50:06;;;;;;;9.80;7.20;;;11.00;93.40;;;;;;5016015;28;20211;-85
2023/04/18 16:52:33;;;;;;;7.82;6.78;;;10.90;93.20;;;;;;5015426;28;20907;-86
2023/04/18 16:55:02;;;;;;;8.07;6.38;;;10.90;93.50;;;;;;5011595;28;20210;-84
2023/04/18 16:57:30;;;;;;;7.32;6.40;;;10.90;93.50;;;;;;5011683;28;20552;-85
2023/04/18 17:00:00;;;;;;;7.85;6.53;;;10.90;93.20;;;;;;5005458;28;20218;-84
2023/04/18 17:02:28;;;;;;;8.10;6.78;;;10.80;93.50;;;;;;5012607;28;20231;-83
2023/04/18 17:04:58;;;;;;;8.07;6.60;;;10.80;93.60;;;;;;5011555;28;20289;-85
2023/04/18 17:07:25;;;;;;;7.20;5.90;;;10.80;93.80;;;;;;4997145;28;20536;-85
2023/04/18 17:09:52;;;;;;;7.82;6.00;;;10.80;93.70;;;;;;5014065;28;20199;-85
2023/04/18 17:12:21;;;;;;;7.40;6.20;;;10.70;93.80;;;;;;5012359;28;20678;-87
2023/04/18 17:14:48;;;;;;;8.45;6.35;;;10.70;94.00;;;;;;5011652;28;20208;-85
2023/04/18 17:17:18;;;;;;;9.15;5.88;;;10.70;94.10;;;;;;5015256;28;20226;-84
2023/04/18 17:19:45;;;;;;;7.30;6.50;;;10.60;94.10;;;;;;5016060;28;20209;-86
2023/04/18 17:33:56;;;;;;;9.32;6.80;;;10.40;95.20;;;;;;5015188;28;20210;-85
2023/04/18 17:36:26;;;;;;;8.02;6.55;;;10.30;94.90;;;;;;5007205;28;20223;-84
2023/04/18 17:38:53;;;;;;;8.43;7.18;;;10.30;95.40;;;;;;5013312;28;20204;-83
2023/04/18 17:41:21;;;;;;;8.35;6.85;;;10.10;95.50;;;;;;5013906;28;20670;-86
2023/04/18 17:43:49;;;;;;;10.55;7.65;;;10.10;95.70;;;;;;5015365;28;20196;-85
2023/04/18 17:46:42;;;;;;;8.07;6.93;;;10.00;95.70;;;;;;5035044;28;20214;-90
2023/04/18 17:49:10;;;;;;;8.30;7.00;;;9.90;96.20;;;;;;5014434;28;20199;-90
2023/04/18 17:51:40;;;;;;;8.50;7.40;;;9.80;96.40;;;;;;5018853;28;20198;-86
2023/04/18 17:54:09;;;;;;;9.50;7.50;;;9.80;96.80;;;;;;5017829;28;20211;-86
2023/04/18 17:56:36;;;;;;;8.63;7.57;;;9.70;97.40;;;;;;4997285;28;20223;-86
2023/04/18 17:59:03;;;;;;;11.15;7.63;;;9.60;97.60;;;;;;5017098;28;20205;-91
2023/04/18 18:01:31;;;;;;;9.57;8.50;;;9.60;98.00;;;;;;5018940;28;20250;-86
2023/04/18 18:03:58;;;;;;;9.60;8.00;;;9.50;98.10;;;;;;5014473;28;20203;-87
2023/04/18 18:06:27;;;;;;;10.52;8.15;;;9.50;98.50;;;;;;5014432;28;20211;-86
2023/04/18 18:08:55;;;;;;;11.27;8.05;;;9.50;98.60;;;;;;5001424;28;20260;-84
2023/04/18 18:11:26;;;;;;;10.15;8.32;;;9.40;98.90;;;;;;5014027;28;20205;-86
2023/04/18 18:13:54;;;;;;;10.13;8.15;;;9.40;99.00;;;;;;4997898;28;20663;-85
2023/04/18 18:16:22;;;;;;;10.30;8.70;;;9.30;99.40;;;;;;5016179;28;20211;-87
2023/04/18 18:18:49;;;;;;;11.35;9.70;;;9.30;99.40;;;;;;4998448;28;20199;-87
2023/04/18 18:21:16;;;;;;;11.40;8.93;;;9.30;99.80;;;;;;5017088;28;20207;-88
2023/04/18 18:27:35;;;;;;;11.20;9.00;;;9.30;99.90;;;;;;5014708;28;20194;-85
2023/04/18 18:33:41;;;;;;;11.50;8.93;;;9.40;99.90;;;;;;5013523;28;20188;-84
2023/04/18 18:43:00;;;;;;;11.07;8.57;;;9.60;99.80;;;;;;5034148;28;20206;-85
2023/04/18 18:59:12;;;;;;;10.73;8.02;;;9.80;99.20;;;;;;5015161;28;20314;-87
2023/04/18 19:12:21;;;;;;;9.90;8.02;;;9.70;99.00;;;;;;5015105;28;20175;-85
2023/04/18 20:52:59;;;;;;;11.88;10.40;;;9.60;99.90;;;;;;4956146;29;20275;-84
2023/04/18 21:54:49;;;;;;;11.93;9.65;;;9.20;99.90;;;;;;5015265;28;20206;-84
2023/04/18 22:08:26;;;;;;;12.15;9.68;;;9.20;99.90;;;;;;5015048;28;20188;-84
